Time;durP1;ratioP1;P1;durP2;ratioP2;P2;SDS_P1;SDS_P2;PMS_P1;PMS_P2;Temp;Humidity;BMP_temperature;BMP_pressure;BME280_temperature;BME280_humidity;BME280_pressure;Samples;Min_cycle;Max_cycle;Signal;HPM_P1;HPM_P2
2023/10/13 00:10:37;;;;;;;;;;;;;;;;;;;;;
2023/10/13 00:23:32;;;;;;;27.60;20.20;;;;;;;14.36;89.83;98815.64;225042;1284;22565;-81
2023/10/13 00:57:26;;;;;;;32.70;23.40;;;;;;;14.20;90.21;98804.95;225075;1285;22557;-80
2023/10/13 01:04:08;;;;;;;34.30;22.90;;;;;;;14.18;90.29;98805.72;225244;1284;22557;-81
2023/10/13 01:10:42;;;;;;;35.00;24.10;;;;;;;14.14;90.36;98796.00;224950;1285;22538;-80
2023/10/13 01:17:13;;;;;;;33.80;22.80;;;;;;;14.14;90.46;98794.23;225259;1284;22591;-81
2023/10/13 01:23:10;;;;;;;;;;;;;;;;;;;;;
2023/10/13 01:29:24;;;;;;;;;;;;;;;;;;;;;
2023/10/13 01:36:36;;;;;;;34.60;24.70;;;;;;;14.15;90.58;98790.12;224823;1288;24971;-81
2023/10/13 01:43:30;;;;;;;30.70;23.40;;;;;;;14.15;90.64;98799.06;222443;1288;3307667;-81
2023/10/13 02:11:45;;;;;;;;;;;;;;;;;;;;;
2023/10/13 02:18:24;;;;;;;;;;;;;;;;;;;;;
2023/10/13 02:25:05;;;;;;;;;;;;;;;;;;;;;
2023/10/13 02:31:41;;;;;;;;;;;;;;;;;;;;;
2023/10/13 02:37:16;;;;;;;;;;;;;;;;;;;;;
2023/10/13 02:42:32;;;;;;;34.40;22.80;;;;;;;13.54;91.38;98799.99;225232;1285;22609;-81
2023/10/13 02:48:57;;;;;;;;;;;;;;;;;;;;;
2023/10/13 02:55:25;;;;;;;;;;;;;;;;;;;;;
2023/10/13 03:01:51;;;;;;;33.40;23.80;;;;;;;13.41;91.55;98800.10;225295;1284;22650;-81
2023/10/13 03:07:35;;;;;;;31.50;24.20;;;;;;;13.43;91.60;98807.33;225281;1284;22699;-81
2023/10/13 03:13:56;;;;;;;;;;;;;;;;;;;;;
2023/10/13 03:26:48;;;;;;;30.10;21.20;;;;;;;13.60;92.29;98800.08;224568;1284;22549;-81
2023/10/13 03:39:48;;;;;;;;;;;;;;;;;;;;;
2023/10/13 03:45:52;;;;;;;23.60;16.90;;;;;;;13.85;92.62;98800.96;225163;1285;22557;-80
2023/10/13 03:51:33;;;;;;;23.60;17.50;;;;;;;13.89;92.51;98799.77;225288;1284;25281;-81
2023/10/13 04:04:21;;;;;;;24.10;15.40;;;;;;;14.01;92.60;98793.40;225276;1285;24955;-81
2023/10/13 04:11:49;;;;;;;19.40;14.30;;;;;;;14.07;92.52;98797.09;225301;1285;22621;-81
2023/10/13 04:21:55;;;;;;;;;;;;;;;;;;;;;
2023/10/13 04:35:47;;;;;;;17.50;13.60;;;;;;;14.23;92.37;98798.67;225230;1284;22573;-81
2023/10/13 04:40:49;;;;;;;;;;;;;;;;;;;;;
2023/10/13 06:29:19;;;;;;;20.10;13.80;;;;;;;15.27;91.19;98877.31;224582;1270;23221;-82
2023/10/13 06:34:37;;;;;;;12.60;9.80;;;;;;;15.35;91.24;98880.73;224308;1277;22593;-73
2023/10/13 06:40:43;;;;;;;;;;;;;;;;;;;;;
2023/10/13 06:46:30;;;;;;;15.10;9.50;;;;;;;15.55;90.59;98883.38;224596;1277;24228;-80
2023/10/13 06:52:31;;;;;;;12.60;9.00;;;;;;;15.66;90.58;98882.44;224785;1277;23611;-79
2023/10/13 06:58:25;;;;;;;13.80;10.20;;;;;;;15.73;90.55;98882.58;224811;1284;22580;-79
2023/10/13 07:04:01;;;;;;;13.30;9.10;;;;;;;15.76;90.25;98884.22;224846;1277;22541;-79
2023/10/13 07:15:03;;;;;;;12.40;9.30;;;;;;;15.79;90.15;98894.82;224819;1277;22602;-79
2023/10/13 07:20:43;;;;;;;12.00;9.30;;;;;;;15.88;90.30;98894.54;224745;1270;22560;-80
2023/10/13 07:26:03;;;;;;;11.80;9.20;;;;;;;15.99;90.13;98897.55;224798;1261;22581;-80
2023/10/13 07:31:33;;;;;;;13.50;9.80;;;;;;;16.05;89.75;98903.43;224667;1270;25410;-82
2023/10/13 07:36:39;;;;;;;;;;;;;;;16.21;89.96;98908.48;224564;1270;22517;-80
2023/10/13 07:42:31;;;;;;;11.70;8.60;;;;;;;16.39;89.54;98910.05;224725;1270;22584;-81
2023/10/13 07:47:46;;;;;;;11.50;8.30;;;;;;;16.56;89.56;98906.13;224824;1277;22564;-81
2023/10/13 07:53:18;;;;;;;13.50;8.50;;;;;;;16.77;89.18;98902.48;224964;1279;22543;-82
2023/10/13 07:58:30;;;;;;;16.30;9.50;;;;;;;17.01;89.10;98900.45;224720;1282;23112;-82
2023/10/13 08:03:57;;;;;;;14.60;8.00;;;;;;;17.20;88.50;98898.90;224779;1269;22543;-83
2023/10/13 08:15:11;;;;;;;9.70;7.00;;;;;;;17.59;87.89;98892.02;224891;1285;22579;-82
2023/10/13 08:20:23;;;;;;;8.80;7.00;;;;;;;17.84;87.33;98888.10;224717;1277;22556;-84
2023/10/13 08:26:29;;;;;;;9.30;7.50;;;;;;;18.14;87.01;98888.42;224877;1283;22546;-84
2023/10/13 08:31:22;;;;;;;11.20;6.50;;;;;;;18.33;85.92;98886.63;224985;1267;22551;-82
2023/10/13 08:36:27;;;;;;;6.90;6.00;;;;;;;18.33;85.29;98882.79;224880;1261;22549;-82
2023/10/13 08:41:39;;;;;;;14.30;6.50;;;;;;;18.30;84.96;98879.27;224925;1261;22602;-81
2023/10/13 08:47:36;;;;;;;;;;;;;;;;;;;;;
2023/10/13 08:53:32;;;;;;;;;;;;;;;18.45;85.07;98881.69;224927;1269;25371;-83
2023/10/13 08:59:20;;;;;;;;;;;;;;;;;;;;;
2023/10/13 09:10:44;;;;;;;7.10;5.40;;;;;;;18.89;83.51;98862.02;224613;1285;22545;-86
2023/10/13 09:16:00;;;;;;;8.50;5.10;;;;;;;18.98;82.72;98864.02;224754;1273;22562;-81
2023/10/13 09:27:16;;;;;;;9.30;5.70;;;;;;;19.32;82.46;98858.41;224853;1277;22594;-87
2023/10/13 09:32:48;;;;;;;8.30;4.90;;;;;;;19.41;81.19;98858.82;224803;1276;22658;-85
2023/10/13 09:38:58;;;;;;;;;;;;;;;;;;;;;
2023/10/13 09:44:38;;;;;;;10.60;5.50;;;;;;;19.64;80.50;98857.92;224982;1282;22550;-86
2023/10/13 09:50:37;;;;;;;6.90;5.20;;;;;;;19.79;79.24;98864.70;224960;1285;22608;-86
2023/10/13 09:56:42;;;;;;;22.40;6.00;;;;;;;19.91;79.00;98862.46;224494;1286;22733;-88
2023/10/13 10:02:20;;;;;;;6.30;4.70;;;;;;;20.01;78.08;98852.64;224479;1282;25089;-81
2023/10/13 10:08:13;;;;;;;9.00;5.10;;;;;;;20.04;77.39;98856.05;224104;1285;22552;-84
2023/10/13 10:14:30;;;;;;;10.00;6.10;;;;;;;20.07;76.99;98847.73;224160;1270;26330;-85
2023/10/13 10:20:19;;;;;;;10.30;5.40;;;;;;;20.16;76.77;98837.48;224156;1286;22696;-87
2023/10/13 10:26:04;;;;;;;9.00;5.40;;;;;;;20.28;76.41;98819.09;224603;1285;22553;-85
2023/10/13 10:31:45;;;;;;;8.90;5.00;;;;;;;20.37;76.42;98813.25;225032;1280;22546;-82
2023/10/13 10:37:14;;;;;;;;;;;;;;;20.40;75.71;98817.59;225119;1284;22514;-85
2023/10/13 10:42:29;;;;;;;7.50;4.90;;;;;;;20.42;75.91;98812.73;224919;1279;22863;-85
2023/10/13 10:48:50;;;;;;;13.20;5.20;;;;;;;20.60;75.88;98808.04;224886;1277;22592;-84
2023/10/13 10:54:31;;;;;;;14.70;6.00;;;;;;;20.84;75.80;98806.20;224759;1280;22612;-85
2023/10/13 10:59:54;;;;;;;7.50;4.60;;;;;;;20.96;74.47;98806.25;224828;1264;24879;-79
2023/10/13 11:06:10;;;;;;;17.90;6.10;;;;;;;20.95;74.47;98807.00;225086;1276;24182;-82
2023/10/13 11:12:07;;;;;;;;;;;;;;;;;;;;;
2023/10/13 11:18:09;;;;;;;7.30;5.10;;;;;;;21.30;74.38;98789.91;224879;1276;22562;-84
2023/10/13 11:23:17;;;;;;;7.70;5.50;;;;;;;21.28;73.61;98788.98;224732;1277;22577;-83
2023/10/13 11:29:00;;;;;;;8.50;4.80;;;;;;;21.13;73.07;98778.08;224933;1277;22545;-84
2023/10/13 11:34:40;;;;;;;9.30;5.20;;;;;;;21.11;73.82;98768.98;224925;1267;24200;-84
2023/10/13 11:46:55;;;;;;;8.80;4.60;;;;;;;21.28;73.28;98768.51;224981;1277;22593;-83
2023/10/13 11:53:07;;;;;;;6.20;4.00;;;;;;;21.36;72.78;98761.14;224862;1282;22572;-78
2023/10/13 11:58:55;;;;;;;7.00;3.70;;;;;;;21.45;72.15;98754.97;224802;1277;22582;-83
2023/10/13 12:04:40;;;;;;;4.20;3.20;;;;;;;21.57;72.24;98747.41;224970;1277;25918;-84
2023/10/13 12:10:38;;;;;;;5.90;3.50;;;;;;;21.68;72.10;98747.25;225035;1280;22557;-81
2023/10/13 12:16:13;;;;;;;4.60;3.50;;;;;;;21.77;71.33;98745.86;224975;1277;22609;-82
2023/10/13 12:21:37;;;;;;;5.80;3.80;;;;;;;21.69;71.41;98750.96;224668;1261;22640;-82
2023/10/13 12:27:35;;;;;;;6.90;3.50;;;;;;;21.62;71.36;98750.56;225035;1271;22680;-79
2023/10/13 12:32:58;;;;;;;4.30;3.80;;;;;;;21.56;71.24;98745.41;224401;1267;23078;-79
2023/10/13 12:38:35;;;;;;;4.90;3.40;;;;;;;21.58;71.76;98740.31;224430;1288;22563;-80
2023/10/13 12:54:47;;;;;;;3.20;2.50;;;;;;;21.41;71.21;98721.23;224321;1286;23298;-82
2023/10/13 12:59:57;;;;;;;4.20;2.60;;;;;;;21.30;71.51;98715.20;224390;1276;22574;-80
2023/10/13 13:05:44;;;;;;;4.20;2.90;;;;;;;21.28;71.52;98713.62;224843;1280;23241;-83
2023/10/13 13:10:47;;;;;;;6.10;2.80;;;;;;;21.33;71.67;98705.60;225043;1283;22574;-83
2023/10/13 13:15:58;;;;;;;3.20;2.80;;;;;;;21.38;71.80;98702.44;224971;1282;22919;-82
2023/10/13 13:21:06;;;;;;;6.30;2.90;;;;;;;21.40;71.75;98695.41;224647;1269;22666;-83
2023/10/13 13:26:17;;;;;;;3.80;2.50;;;;;;;21.42;71.73;98696.94;224710;1279;22626;-82
2023/10/13 13:31:29;;;;;;;4.70;2.60;;;;;;;21.52;71.74;98694.90;224692;1285;22597;-77
2023/10/13 13:36:52;;;;;;;3.40;2.90;;;;;;;21.59;71.19;98696.22;224882;1282;22727;-81
2023/10/13 13:42:36;;;;;;;;;;;;;;;;;;;;;
2023/10/13 13:47:54;;;;;;;2.80;2.40;;;;;;;21.31;71.33;98691.44;224865;1277;22703;-85
2023/10/13 13:53:27;;;;;;;2.50;2.30;;;;;;;21.13;71.45;98681.02;224867;1283;22569;-82
2023/10/13 13:58:44;;;;;;;8.60;6.80;;;;;;;20.99;71.90;98681.63;223950;1286;26157;-81
2023/10/13 14:03:56;;;;;;;5.30;3.30;;;;;;;20.94;72.36;98683.16;223806;1282;22556;-82
2023/10/13 14:09:14;;;;;;;3.90;2.80;;;;;;;20.88;72.36;98685.26;224157;1286;25367;-83
2023/10/13 14:15:19;;;;;;;;;;;;;;;;;;;;;
2023/10/13 14:20:26;;;;;;;4.10;2.90;;;;;;;20.64;73.02;98678.95;224820;1285;22550;-82
2023/10/13 14:25:37;;;;;;;6.10;3.60;;;;;;;20.58;73.17;98673.89;224670;1287;25432;-82
2023/10/13 14:30:44;;;;;;;7.20;3.80;;;;;;;20.54;73.80;98673.79;225124;1267;22574;-83
2023/10/13 14:35:55;;;;;;;5.30;4.10;;;;;;;20.53;73.94;98670.89;224986;1284;22556;-82
2023/10/13 14:40:59;;;;;;;6.20;4.00;;;;;;;20.52;74.20;98668.19;225253;1282;22594;-82
2023/10/13 14:46:08;;;;;;;6.10;4.00;;;;;;;20.52;74.27;98662.34;225186;1280;22663;-82
2023/10/13 14:51:16;;;;;;;6.70;4.40;;;;;;;20.50;74.57;98653.61;225258;1283;22547;-82
2023/10/13 14:56:44;;;;;;;6.10;4.40;;;;;;;20.47;74.73;98655.96;224854;1287;22586;-82
2023/10/13 15:01:55;;;;;;;8.30;4.40;;;;;;;20.37;74.79;98656.14;224920;1286;22602;-82
2023/10/13 15:07:24;;;;;;;5.80;4.50;;;;;;;20.24;75.07;98651.64;224973;1286;22557;-82
2023/10/13 15:12:45;;;;;;;7.40;4.90;;;;;;;20.09;75.40;98640.59;224928;1284;22570;-83
2023/10/13 15:17:50;;;;;;;8.40;4.70;;;;;;;19.96;75.71;98636.92;224899;1288;22574;-83
2023/10/13 15:23:28;;;;;;;7.60;4.80;;;;;;;19.83;76.06;98638.56;224939;1287;22554;-82
2023/10/13 15:28:37;;;;;;;8.50;5.20;;;;;;;19.74;76.33;98630.88;225138;1284;22553;-82
2023/10/13 15:33:52;;;;;;;5.90;4.80;;;;;;;19.63;76.49;98629.04;225215;1284;22557;-82
2023/10/13 15:39:00;;;;;;;7.20;5.00;;;;;;;19.50;76.67;98634.28;225129;1284;24392;-81
2023/10/13 15:44:42;;;;;;;9.60;5.10;;;;;;;19.35;76.93;98630.05;225040;1286;22583;-82
2023/10/13 15:49:53;;;;;;;7.90;5.20;;;;;;;19.21;77.24;98631.10;224960;1286;24256;-82
2023/10/13 15:55:27;;;;;;;7.20;4.80;;;;;;;19.05;77.43;98626.73;224964;1286;22573;-82
2023/10/13 16:00:43;;;;;;;7.00;5.10;;;;;;;18.92;77.68;98629.83;225022;1286;22549;-83
2023/10/13 16:06:09;;;;;;;5.90;5.30;;;;;;;18.79;77.79;98623.48;225038;1286;22641;-83
2023/10/13 16:11:19;;;;;;;;;;;;;;;18.66;78.08;98615.84;225016;1286;22544;-82
2023/10/13 16:16:27;;;;;;;13.20;7.70;;;;;;;18.56;78.23;98608.54;225183;1284;22589;-82
2023/10/13 16:22:03;;;;;;;13.00;8.80;;;;;;;18.44;78.36;98603.30;225226;1284;25893;-83
2023/10/13 16:27:15;;;;;;;10.70;7.70;;;;;;;18.33;78.65;98606.50;225215;1282;22638;-82
2023/10/13 16:32:25;;;;;;;14.90;8.20;;;;;;;18.21;78.79;98597.75;225198;1284;24638;-85
2023/10/13 16:37:49;;;;;;;;;;;;;;;;;;;;;
2023/10/13 16:42:52;;;;;;;10.50;8.70;;;;;;;18.02;79.37;98578.83;225203;1283;22594;-83
2023/10/13 16:48:00;;;;;;;15.20;8.50;;;;;;;17.95;79.72;98578.46;225181;1283;22553;-82
2023/10/13 16:53:40;;;;;;;12.50;8.80;;;;;;;17.91;80.06;98580.02;225166;1284;22550;-82
2023/10/13 16:59:04;;;;;;;13.20;8.90;;;;;;;17.89;80.15;98577.98;225143;1284;22549;-83
2023/10/13 17:04:15;;;;;;;12.30;7.90;;;;;;;17.85;80.36;98570.85;225139;1285;22650;-83
2023/10/13 17:09:26;;;;;;;11.70;8.30;;;;;;;17.80;80.55;98564.98;225061;1284;21775;-83
2023/10/13 17:14:40;;;;;;;10.50;8.20;;;;;;;17.74;80.63;98555.89;225099;1282;22607;-83
2023/10/13 17:19:51;;;;;;;14.40;8.30;;;;;;;17.70;80.81;98553.30;225230;1285;25089;-82
2023/10/13 17:25:12;;;;;;;16.10;8.90;;;;;;;17.68;80.86;98545.66;225103;1284;24271;-83
2023/10/13 17:30:16;;;;;;;12.80;9.70;;;;;;;17.66;81.10;98555.30;225164;1267;22545;-82
2023/10/13 17:36:24;;;;;;;;;;;;;;;;;;;;;
2023/10/13 17:42:28;;;;;;;15.10;10.10;;;;;;;17.64;81.02;98540.70;225278;1285;22543;-82
2023/10/13 17:47:51;;;;;;;17.50;11.00;;;;;;;17.61;81.07;98533.88;225230;1284;24240;-83
2023/10/13 17:53:35;;;;;;;;;;;;;;;;;;;;;
2023/10/13 17:59:06;;;;;;;18.30;11.20;;;;;;;17.56;81.35;98525.55;225160;1284;22540;-82
2023/10/13 18:04:09;;;;;;;17.60;11.40;;;;;;;17.51;81.44;98522.52;225206;1284;22546;-82
2023/10/13 18:09:22;;;;;;;15.00;11.10;;;;;;;17.47;81.32;98517.49;225196;1283;22682;-82
2023/10/13 18:14:25;;;;;;;24.60;15.90;;;;;;;17.43;81.53;98521.40;225165;1283;22564;-82
2023/10/13 18:19:30;;;;;;;15.20;10.70;;;;;;;17.39;81.40;98521.70;225301;1284;22583;-82
2023/10/13 18:24:35;;;;;;;12.30;9.50;;;;;;;17.32;81.41;98522.01;225194;1284;24239;-82
2023/10/13 18:29:44;;;;;;;13.90;8.90;;;;;;;17.25;81.59;98516.84;225172;1285;22579;-83
2023/10/13 18:34:52;;;;;;;13.00;8.80;;;;;;;17.20;81.55;98513.59;225158;1284;22550;-83
2023/10/13 18:40:02;;;;;;;11.80;8.50;;;;;;;17.15;81.67;98507.94;225196;1284;22564;-83
2023/10/13 18:45:07;;;;;;;10.40;8.10;;;;;;;17.10;81.82;98506.66;225179;1284;22607;-83
2023/10/13 18:50:11;;;;;;;13.80;8.90;;;;;;;17.05;81.78;98502.09;225183;1284;22549;-82
2023/10/13 18:55:17;;;;;;;14.40;9.10;;;;;;;17.00;81.83;98504.27;225177;1284;22742;-83
2023/10/13 19:00:25;;;;;;;13.90;9.20;;;;;;;16.94;81.86;98496.61;225171;1284;22560;-82
2023/10/13 19:05:29;;;;;;;13.60;8.80;;;;;;;16.88;81.99;98488.98;225204;1284;22556;-81
2023/10/13 19:10:39;;;;;;;14.30;8.60;;;;;;;16.83;82.14;98492.17;225194;1284;22555;-83
2023/10/13 19:15:41;;;;;;;16.20;9.20;;;;;;;16.81;82.30;98489.02;225288;1283;22560;-83
2023/10/13 19:20:49;;;;;;;14.60;8.50;;;;;;;16.80;82.38;98490.30;225208;1283;22567;-82
2023/10/13 19:25:52;;;;;;;14.20;8.70;;;;;;;16.79;82.26;98489.05;225252;1285;22546;-82
2023/10/13 19:30:55;;;;;;;13.40;9.00;;;;;;;16.73;82.29;98483.11;225161;1283;22533;-82
2023/10/13 19:36:00;;;;;;;15.10;9.90;;;;;;;16.67;82.26;98482.23;225167;1284;22551;-83
2023/10/13 19:41:06;;;;;;;14.90;9.70;;;;;;;16.61;82.41;98482.09;225238;1285;22660;-84
2023/10/13 19:46:09;;;;;;;16.50;10.20;;;;;;;16.56;82.19;98474.83;225161;1283;22576;-82
2023/10/13 19:51:14;;;;;;;18.50;10.40;;;;;;;16.52;82.39;98479.64;225156;1282;25295;-83
2023/10/13 19:56:19;;;;;;;15.70;9.50;;;;;;;16.49;82.37;98478.71;225098;1276;22554;-83
2023/10/13 20:01:32;;;;;;;17.50;9.80;;;;;;;16.44;82.45;98471.67;225227;1285;22559;-83
2023/10/13 20:06:40;;;;;;;14.60;9.20;;;;;;;16.36;82.47;98468.34;225178;1283;22540;-82
2023/10/13 20:12:02;;;;;;;13.60;9.40;;;;;;;16.29;82.67;98463.13;224973;1286;22544;-83
2023/10/13 20:17:05;;;;;;;16.90;9.90;;;;;;;16.27;82.91;98459.08;224919;1286;22579;-82
2023/10/13 20:22:10;;;;;;;17.00;9.00;;;;;;;16.27;82.82;98455.30;225023;1286;22569;-82
2023/10/13 20:27:30;;;;;;;12.80;8.90;;;;;;;16.26;82.95;98458.10;224767;1289;25309;-83
2023/10/13 20:32:34;;;;;;;13.60;9.40;;;;;;;16.22;82.95;98450.81;224773;1288;24208;-82
2023/10/13 20:37:40;;;;;;;15.40;8.80;;;;;;;16.17;82.83;98440.52;224666;1289;22577;-83
2023/10/13 20:42:42;;;;;;;14.90;8.90;;;;;;;16.10;82.76;98434.39;224884;1287;22936;-83
2023/10/13 20:47:45;;;;;;;15.70;8.60;;;;;;;16.05;83.05;98431.27;224928;1286;22559;-83
2023/10/13 20:53:08;;;;;;;14.10;8.80;;;;;;;16.02;83.37;98431.59;224851;1287;22586;-83
2023/10/13 20:58:31;;;;;;;15.30;9.00;;;;;;;15.98;82.98;98425.22;224914;1287;22701;-82
2023/10/13 21:03:37;;;;;;;14.40;9.10;;;;;;;15.93;82.98;98419.76;224968;1287;22568;-82
2023/10/13 21:08:50;;;;;;;13.00;9.70;;;;;;;15.88;83.15;98417.19;225049;1287;22614;-84
2023/10/13 21:14:00;;;;;;;13.00;8.50;;;;;;;15.82;83.19;98413.71;224902;1286;24254;-83
2023/10/13 21:19:15;;;;;;;15.50;8.30;;;;;;;15.81;83.28;98409.52;224912;1287;22569;-83
2023/10/13 21:24:31;;;;;;;12.00;8.40;;;;;;;15.82;83.36;98404.91;224888;1286;22547;-83
2023/10/13 21:29:34;;;;;;;13.20;8.10;;;;;;;15.83;83.16;98402.42;225096;1285;22556;-83
2023/10/13 21:34:41;;;;;;;14.30;7.90;;;;;;;15.83;83.26;98398.33;225131;1285;23784;-83
2023/10/13 21:40:00;;;;;;;11.80;8.00;;;;;;;15.81;82.98;98397.42;225159;1285;22659;-83
2023/10/13 21:45:39;;;;;;;12.50;8.00;;;;;;;15.78;83.05;98391.81;225176;1285;22553;-82
2023/10/13 21:50:42;;;;;;;15.00;8.50;;;;;;;15.75;83.10;98387.20;225164;1285;22635;-82
2023/10/13 21:55:58;;;;;;;14.00;7.70;;;;;;;15.71;82.93;98380.30;225143;1284;22533;-83
2023/10/13 22:01:27;;;;;;;12.70;7.70;;;;;;;15.70;83.22;98374.59;225203;1284;22582;-81
2023/10/13 22:06:26;;;;;;;16.60;8.90;;;;;;;15.67;83.20;98368.44;225139;1285;22557;-82
2023/10/13 22:12:44;;;;;;;11.20;7.90;;;;;;;15.61;83.05;98357.31;225155;1285;22554;-82
2023/10/13 22:18:13;;;;;;;12.00;8.50;;;;;;;15.52;82.98;98349.52;225202;1285;22550;-82
2023/10/13 22:23:23;;;;;;;16.10;8.40;;;;;;;15.44;83.02;98342.40;225091;1264;22577;-84
2023/10/13 22:28:29;;;;;;;13.90;8.20;;;;;;;15.39;83.46;98340.73;225165;1285;22607;-82
2023/10/13 22:33:37;;;;;;;13.30;7.70;;;;;;;15.34;83.41;98327.98;225136;1284;22556;-82
2023/10/13 22:38:59;;;;;;;12.50;8.20;;;;;;;15.27;83.17;98325.44;225118;1285;22620;-81
2023/10/13 22:44:05;;;;;;;10.70;8.50;;;;;;;15.21;83.42;98333.64;225186;1285;22555;-82
2023/10/13 22:49:37;;;;;;;;;;;;;;;;;;;;;
2023/10/13 22:55:21;;;;;;;14.60;9.00;;;;;;;15.15;83.82;98317.92;225212;1285;23453;-81
2023/10/13 23:00:44;;;;;;;13.00;8.50;;;;;;;15.10;83.61;98313.52;225098;1285;22515;-82
2023/10/13 23:05:54;;;;;;;13.70;9.00;;;;;;;15.07;83.86;98302.46;225180;1280;22564;-81
2023/10/13 23:11:19;;;;;;;15.60;9.30;;;;;;;15.08;84.00;98300.85;225147;1279;22549;-82
2023/10/13 23:16:36;;;;;;;;;;;;;;;;;;;;;
2023/10/13 23:21:52;;;;;;;11.60;8.20;;;;;;;15.03;83.83;98293.38;225166;1285;22551;-82
2023/10/13 23:27:30;;;;;;;;;;;;;;;;;;;;;
2023/10/13 23:32:43;;;;;;;16.70;9.50;;;;;;;14.91;83.83;98279.20;225131;1284;22554;-81
2023/10/13 23:37:51;;;;;;;12.20;9.30;;;;;;;14.87;84.10;98265.77;225149;1283;22556;-82
2023/10/13 23:43:19;;;;;;;;;;;;;;;;;;;;;
2023/10/13 23:48:27;;;;;;;15.60;9.20;;;;;;;14.72;83.89;98255.47;225172;1284;22549;-80
2023/10/13 23:53:45;;;;;;;13.50;10.10;;;;;;;14.64;84.17;98255.11;225165;1285;22553;-82
2023/10/13 23:59:27;;;;;;;16.40;10.50;;;;;;;14.55;84.07;98250.20;225167;1285;22567;-82
